createdAt,value
2018-03-11T00:01:04.408Z,77.86
2018-03-11T00:03:49.517Z,78.22
2018-03-11T00:06:19.482Z,77.96
2018-03-11T00:08:52.295Z,79.00
2018-03-11T00:11:21.327Z,79.18
2018-03-11T00:13:50.383Z,79.83
2018-03-11T00:16:19.395Z,81.08
2018-03-11T00:21:25.212Z,82.85
2018-03-11T00:23:59.327Z,83.30
2018-03-11T00:26:29.351Z,83.34
2018-03-11T00:29:03.126Z,83.75
2018-03-11T00:32:03.421Z,83.71
2018-03-11T00:34:32.479Z,83.96
2018-03-11T00:37:03.540Z,85.21
2018-03-11T00:39:33.523Z,84.58
2018-03-11T00:42:04.448Z,84.51
2018-03-11T00:44:33.483Z,83.33
2018-03-11T00:47:03.427Z,81.69
2018-03-11T00:49:37.002Z,81.53
2018-03-11T00:52:06.054Z,82.21
2018-03-11T00:57:10.270Z,80.25
2018-03-11T00:59:39.311Z,78.71
2018-03-11T01:02:08.370Z,78.98
2018-03-11T01:04:38.302Z,80.08
2018-03-11T01:07:07.343Z,81.54
2018-03-11T01:09:36.385Z,79.98
2018-03-11T01:12:05.540Z,78.58
2018-03-11T01:14:34.576Z,77.98
2018-03-11T01:17:03.640Z,78.04
2018-03-11T01:19:32.668Z,79.23
2018-03-11T01:24:38.814Z,79.80
2018-03-11T01:27:07.863Z,80.01
2018-03-11T01:29:36.901Z,79.88
2018-03-11T01:32:05.939Z,80.55
2018-03-11T01:34:34.975Z,80.08
2018-03-11T01:37:04.132Z,79.50
2018-03-11T01:39:33.176Z,78.48
2018-03-11T01:42:02.207Z,78.00
2018-03-11T01:44:31.248Z,78.91
2018-03-11T01:47:00.290Z,78.77
2018-03-11T01:49:30.278Z,78.85
2018-03-11T01:51:59.329Z,78.39
2018-03-11T01:54:28.366Z,77.80
2018-03-11T01:56:57.450Z,77.55
2018-03-11T01:59:26.467Z,77.90
2018-03-11T02:01:55.510Z,79.15
2018-03-11T02:04:24.548Z,79.04
2018-03-11T02:06:53.608Z,78.20
2018-03-11T02:09:22.640Z,78.75
2018-03-11T02:11:51.701Z,78.62
2018-03-11T02:14:20.742Z,77.92
2018-03-11T02:16:49.774Z,78.79
2018-03-11T02:19:18.807Z,79.26
2018-03-11T02:24:24.099Z,80.14
2018-03-11T02:26:56.870Z,80.99
2018-03-11T02:29:25.914Z,81.45
2018-03-11T02:34:30.174Z,80.05
2018-03-11T02:36:59.219Z,79.75
2018-03-11T02:39:28.251Z,78.59
2018-03-11T02:42:10.458Z,78.59
2018-03-11T02:44:39.503Z,78.67
2018-03-11T02:47:12.307Z,78.40
2018-03-11T02:49:41.347Z,78.51
2018-03-11T02:52:25.463Z,78.69
2018-03-11T02:55:03.608Z,77.58
2018-03-11T02:57:33.555Z,77.37
2018-03-11T03:02:37.815Z,76.00
2018-03-11T03:05:16.714Z,74.95
2018-03-11T03:07:45.771Z,74.20
2018-03-11T03:10:14.815Z,73.91
2018-03-11T03:12:43.869Z,73.21
2018-03-11T03:15:48.420Z,72.37
2018-03-11T03:18:19.746Z,72.27
2018-03-11T03:20:48.843Z,72.53
2018-03-11T03:23:30.921Z,72.29
2018-03-11T03:25:59.960Z,72.04
2018-03-11T03:28:32.634Z,70.85
2018-03-11T03:31:01.709Z,70.38
2018-03-11T03:33:34.326Z,70.64
2018-03-11T03:36:03.361Z,70.69
2018-03-11T03:38:46.599Z,71.56
2018-03-11T03:41:17.591Z,71.37
2018-03-11T03:43:46.630Z,73.17
2018-03-11T03:46:16.594Z,74.07
2018-03-11T03:48:46.527Z,75.78
2018-03-11T03:51:20.940Z,76.57
2018-03-11T03:53:49.983Z,76.32
2018-03-11T03:56:29.778Z,76.40
2018-03-11T03:58:58.814Z,77.18
2018-03-11T04:01:46.357Z,77.93
2018-03-11T04:04:46.228Z,78.45
2018-03-11T04:07:17.202Z,79.25
2018-03-11T04:09:48.300Z,79.22
2018-03-11T04:14:52.557Z,80.02
2018-03-11T04:17:36.243Z,80.19
2018-03-11T04:20:10.297Z,80.09
2018-03-11T04:22:41.230Z,80.69
2018-03-11T04:25:42.770Z,81.45
2018-03-11T04:28:30.991Z,82.35
2018-03-11T04:31:00.046Z,82.27
2018-03-11T04:33:29.091Z,83.69
2018-03-11T04:35:58.150Z,82.96
2018-03-11T04:38:32.631Z,83.14
2018-03-11T04:41:01.707Z,82.71
2018-03-11T04:43:35.367Z,83.36
2018-03-11T04:46:04.413Z,83.85
2018-03-11T04:48:33.453Z,83.95
2018-03-11T04:51:02.491Z,84.51
2018-03-11T04:56:06.819Z,85.11
2018-03-11T04:58:35.814Z,84.84
2018-03-11T05:01:04.861Z,85.40
2018-03-11T05:03:33.899Z,83.51
2018-03-11T05:06:02.946Z,83.98
2018-03-11T05:08:31.975Z,84.37
2018-03-11T05:11:01.019Z,84.18
2018-03-11T05:13:30.055Z,84.29
2018-03-11T05:15:59.098Z,84.13
2018-03-11T05:18:28.147Z,84.72
2018-03-11T05:20:57.177Z,85.67
2018-03-11T05:23:26.234Z,85.73
2018-03-11T05:25:55.275Z,86.58
2018-03-11T05:28:24.305Z,86.78
2018-03-11T05:30:53.348Z,86.54
2018-03-11T05:33:22.379Z,86.11
2018-03-11T05:38:26.610Z,85.66
2018-03-11T05:40:55.659Z,85.03
2018-03-11T05:43:24.701Z,84.87
2018-03-11T05:48:33.820Z,86.14
2018-03-11T05:51:04.855Z,87.28
2018-03-11T05:53:33.894Z,87.88
2018-03-11T05:56:08.352Z,87.06
2018-03-11T06:01:13.576Z,83.88
2018-03-11T06:04:00.490Z,83.52
2018-03-11T06:06:48.390Z,83.83
2018-03-11T06:09:17.430Z,82.95
2018-03-11T06:12:03.561Z,81.60
2018-03-11T06:14:33.494Z,80.23
2018-03-11T06:17:02.530Z,79.28
2018-03-11T06:19:53.270Z,78.51
2018-03-11T06:22:22.314Z,77.72
2018-03-11T06:25:08.940Z,77.92
2018-03-11T06:30:15.223Z,77.45
2018-03-11T06:35:19.512Z,78.07
2018-03-11T06:37:52.323Z,77.86
2018-03-11T06:40:21.363Z,78.03
2018-03-11T06:43:08.550Z,77.06
2018-03-11T06:48:13.904Z,74.43
2018-03-11T06:50:43.875Z,72.89
2018-03-11T06:53:12.916Z,73.12
2018-03-11T06:55:42.116Z,74.07
2018-03-11T06:58:11.188Z,73.93
2018-03-11T07:00:40.178Z,72.65
2018-03-11T07:03:09.221Z,69.98
2018-03-11T07:05:38.274Z,70.77
2018-03-11T07:08:07.297Z,68.01
2018-03-11T07:10:36.354Z,69.25
2018-03-11T07:13:05.438Z,67.69
2018-03-11T07:15:34.482Z,64.25
2018-03-11T07:18:03.528Z,68.23
2018-03-11T07:20:32.572Z,62.61
2018-03-11T07:23:01.636Z,60.75
2018-03-11T07:25:30.690Z,62.87
2018-03-11T07:27:59.718Z,58.96
2018-03-11T07:30:28.837Z,58.29
2018-03-11T07:32:57.887Z,58.95
2018-03-11T07:35:26.935Z,59.80
2018-03-11T07:37:55.994Z,57.86
2018-03-11T07:40:25.028Z,58.61
2018-03-11T07:42:54.073Z,57.03
2018-03-11T07:45:23.107Z,56.45
2018-03-11T07:47:52.176Z,61.58
2018-03-11T07:50:21.219Z,56.76
2018-03-11T07:52:53.913Z,59.00
2018-03-11T07:55:22.974Z,61.70
2018-03-11T07:57:52.027Z,60.60
2018-03-11T08:00:21.088Z,60.02
2018-03-11T08:02:50.140Z,60.12
2018-03-11T08:05:19.202Z,59.37
2018-03-11T08:10:25.454Z,56.19
2018-03-11T08:12:54.501Z,52.05
2018-03-11T08:15:23.561Z,53.31
2018-03-11T08:17:52.624Z,53.76
2018-03-11T08:20:21.680Z,53.55
2018-03-11T08:22:50.726Z,52.55
2018-03-11T08:25:20.717Z,56.27
2018-03-11T08:27:49.755Z,54.82
2018-03-11T08:30:19.709Z,53.30
2018-03-11T08:32:48.759Z,55.69
2018-03-11T08:35:17.818Z,50.96
2018-03-11T08:37:46.876Z,57.24
2018-03-11T08:40:15.922Z,53.78
2018-03-11T08:42:44.976Z,53.79
2018-03-11T08:45:17.587Z,52.82
2018-03-11T08:47:46.636Z,49.84
2018-03-11T08:52:51.962Z,49.28
2018-03-11T08:55:21.028Z,49.19
2018-03-11T08:57:53.426Z,50.42
2018-03-11T09:00:22.482Z,49.95
2018-03-11T09:02:55.089Z,48.50
2018-03-11T09:05:24.154Z,46.60
2018-03-11T09:10:28.854Z,49.02
2018-03-11T09:12:58.194Z,50.75
2018-03-11T09:15:27.256Z,47.72
2018-03-11T09:17:56.302Z,46.59
2018-03-11T09:20:25.360Z,46.46
2018-03-11T09:22:54.434Z,49.78
2018-03-11T09:25:23.508Z,45.75
2018-03-11T09:27:52.559Z,42.57
2018-03-11T09:30:21.624Z,50.08
2018-03-11T09:35:26.964Z,49.24
2018-03-11T09:37:56.011Z,44.48
2018-03-11T09:40:25.062Z,46.43
2018-03-11T09:42:54.152Z,45.12
2018-03-11T09:45:23.420Z,43.05
2018-03-11T09:47:53.406Z,46.10
2018-03-11T09:50:25.952Z,40.84
2018-03-11T09:55:30.275Z,43.10
2018-03-11T09:57:59.328Z,37.84
2018-03-11T10:00:28.380Z,38.89
2018-03-11T10:02:57.432Z,38.84
2018-03-11T10:05:26.487Z,42.04
2018-03-11T10:07:55.557Z,39.32
2018-03-11T10:10:26.085Z,38.45
2018-03-11T10:12:55.125Z,40.62
2018-03-11T10:15:24.176Z,43.02
2018-03-11T10:17:53.227Z,37.03
2018-03-11T10:20:22.295Z,37.19
2018-03-11T10:22:51.382Z,38.93
2018-03-11T10:25:22.628Z,38.98
2018-03-11T10:27:51.686Z,38.74
2018-03-11T10:32:56.053Z,41.00
2018-03-11T10:35:25.121Z,41.69
2018-03-11T10:37:54.158Z,42.79
2018-03-11T10:40:23.562Z,40.86
2018-03-11T10:42:52.946Z,40.69
2018-03-11T10:45:22.072Z,39.97
2018-03-11T10:50:26.898Z,40.25
2018-03-11T10:52:55.957Z,40.36
2018-03-11T10:55:25.006Z,41.13
2018-03-11T11:00:29.355Z,40.11
2018-03-11T11:03:04.871Z,38.65
2018-03-11T11:05:36.492Z,40.78
2018-03-11T11:08:05.656Z,40.73
2018-03-11T11:10:35.616Z,39.25
2018-03-11T11:13:04.664Z,40.71
2018-03-11T11:18:12.879Z,37.47
2018-03-11T11:20:41.923Z,36.30
2018-03-11T11:23:11.025Z,35.95
2018-03-11T11:25:40.101Z,34.46
2018-03-11T11:28:09.141Z,34.09
2018-03-11T11:33:13.436Z,38.03
2018-03-11T11:35:42.475Z,35.98
2018-03-11T11:38:12.425Z,36.75
2018-03-11T11:40:41.479Z,34.33
2018-03-11T11:43:10.609Z,37.17
2018-03-11T11:48:14.883Z,40.51
2018-03-11T11:53:20.223Z,40.45
2018-03-11T11:55:49.284Z,39.54
2018-03-11T11:58:18.344Z,42.05
2018-03-11T12:05:59.094Z,39.90
2018-03-11T12:08:28.155Z,39.51
2018-03-11T12:10:57.195Z,37.30
2018-03-11T12:13:26.251Z,39.33
2018-03-11T12:15:55.306Z,37.81
2018-03-11T12:18:24.360Z,34.80
2018-03-11T12:20:53.413Z,34.59
2018-03-11T12:23:22.471Z,33.91
2018-03-11T12:25:51.531Z,34.89
2018-03-11T12:28:20.578Z,33.77
2018-03-11T12:30:49.712Z,35.22
2018-03-11T12:33:18.808Z,33.15
2018-03-11T12:38:24.095Z,33.10
2018-03-11T12:40:53.166Z,31.13
2018-03-11T12:43:22.262Z,28.64
2018-03-11T12:45:51.311Z,31.35
2018-03-11T12:48:24.120Z,28.51
2018-03-11T12:50:53.247Z,35.52
2018-03-11T12:53:23.266Z,35.60
2018-03-11T12:55:52.397Z,33.26
2018-03-11T13:00:56.760Z,35.76
2018-03-11T13:03:25.899Z,36.98
2018-03-11T13:05:55.000Z,36.20
2018-03-11T13:08:24.086Z,38.06
2018-03-11T13:10:53.165Z,38.96
2018-03-11T13:13:22.225Z,38.99
2018-03-11T13:15:51.271Z,38.13
2018-03-11T13:18:20.327Z,39.21
2018-03-11T13:21:11.385Z,39.90
2018-03-11T13:23:40.438Z,40.30
2018-03-11T13:26:25.526Z,40.26
2018-03-11T13:28:57.896Z,40.73
2018-03-11T13:31:31.202Z,41.05
2018-03-11T13:36:41.822Z,42.28
2018-03-11T13:39:33.204Z,42.56
2018-03-11T13:42:09.509Z,43.09
2018-03-11T13:44:45.366Z,45.07
2018-03-11T13:47:20.434Z,44.33
2018-03-11T13:49:52.816Z,43.55
2018-03-11T13:52:42.822Z,45.86
2018-03-11T13:55:17.254Z,45.03
2018-03-11T14:00:55.600Z,43.15
2018-03-11T14:03:25.688Z,46.42
2018-03-11T14:05:54.784Z,48.99
2018-03-11T14:08:24.913Z,48.00
2018-03-11T14:10:53.955Z,47.87
2018-03-11T14:13:23.588Z,46.62
2018-03-11T14:15:52.644Z,46.83
2018-03-11T14:18:21.744Z,46.79
2018-03-11T14:20:50.806Z,48.77
2018-03-11T14:23:20.815Z,47.30
2018-03-11T14:25:49.890Z,50.45
2018-03-11T14:28:19.793Z,49.46
2018-03-11T14:33:26.612Z,48.34
2018-03-11T14:35:55.665Z,48.25
2018-03-11T14:38:25.912Z,48.70
2018-03-11T14:40:54.963Z,47.84
2018-03-11T14:43:25.466Z,49.61
2018-03-11T14:45:54.511Z,47.25
2018-03-11T14:48:24.832Z,47.86
2018-03-11T14:50:53.879Z,46.78
2018-03-11T14:53:37.395Z,46.72
2018-03-11T14:56:09.843Z,48.09
2018-03-11T14:58:42.539Z,48.10
2018-03-11T15:01:14.734Z,47.32
2018-03-11T15:03:47.661Z,47.71
2018-03-11T15:06:20.443Z,47.33
2018-03-11T15:08:53.018Z,46.97
2018-03-11T15:11:26.982Z,48.01
2018-03-11T15:13:58.640Z,47.40
2018-03-11T15:16:31.290Z,47.10
2018-03-11T15:19:01.280Z,47.33
2018-03-11T15:24:05.617Z,46.40
2018-03-11T15:26:34.655Z,47.87
2018-03-11T15:29:03.756Z,48.51
2018-03-11T15:31:33.659Z,48.97
2018-03-11T15:34:02.714Z,48.16
2018-03-11T15:36:31.769Z,47.91
2018-03-11T15:39:00.832Z,48.85
2018-03-11T15:41:29.894Z,46.76
2018-03-11T15:43:58.972Z,47.06
2018-03-11T15:46:28.024Z,46.90
2018-03-11T15:51:32.370Z,48.36
2018-03-11T15:54:01.428Z,51.17
2018-03-11T15:56:30.473Z,50.29
2018-03-11T15:58:59.574Z,49.83
2018-03-11T16:01:28.668Z,50.11
2018-03-11T16:04:01.068Z,49.67
2018-03-11T16:06:30.111Z,50.50
2018-03-11T16:08:59.176Z,51.74
2018-03-11T16:11:28.326Z,52.46
2018-03-11T16:13:57.964Z,53.58
2018-03-11T16:16:27.139Z,54.04
2018-03-11T16:18:56.271Z,53.09
2018-03-11T16:21:25.446Z,52.52
2018-03-11T16:23:54.491Z,57.52
2018-03-11T16:26:23.532Z,59.61
2018-03-11T16:28:52.589Z,59.73
2018-03-11T16:31:21.660Z,59.66
2018-03-11T16:33:50.720Z,60.78
2018-03-11T16:36:19.776Z,61.45
2018-03-11T16:38:48.859Z,64.03
2018-03-11T16:41:20.175Z,63.62
2018-03-11T16:46:25.433Z,64.18
2018-03-11T16:51:30.726Z,62.80
2018-03-11T16:53:59.768Z,61.69
2018-03-11T16:56:28.812Z,68.79
2018-03-11T16:58:57.864Z,67.77
2018-03-11T17:01:26.919Z,68.88
2018-03-11T17:06:31.222Z,63.65
2018-03-11T17:11:36.501Z,63.25
2018-03-11T17:14:05.580Z,66.82
2018-03-11T17:16:35.496Z,69.61
2018-03-11T17:19:04.564Z,66.60
2018-03-11T17:21:34.528Z,66.11
2018-03-11T17:24:03.768Z,65.90
2018-03-11T17:26:32.917Z,66.83
2018-03-11T17:29:05.331Z,68.36
2018-03-11T17:31:36.868Z,69.61
2018-03-11T17:34:05.923Z,69.93
2018-03-11T17:36:35.725Z,70.71
2018-03-11T17:39:04.776Z,71.85
2018-03-11T17:41:33.811Z,70.51
2018-03-11T17:44:02.849Z,73.68
2018-03-11T17:46:31.920Z,71.39
2018-03-11T17:49:00.975Z,71.77
2018-03-11T17:51:30.043Z,69.61
2018-03-11T17:53:59.161Z,70.22
2018-03-11T17:56:28.238Z,69.54
2018-03-11T17:58:57.292Z,71.87
2018-03-11T18:01:29.837Z,68.82
2018-03-11T18:03:58.995Z,70.89
2018-03-11T18:06:28.264Z,67.10
2018-03-11T18:08:57.598Z,67.09
2018-03-11T18:11:30.062Z,70.53
2018-03-11T18:13:59.202Z,70.02
2018-03-11T18:19:04.717Z,68.53
2018-03-11T18:21:33.787Z,67.76
2018-03-11T18:24:02.832Z,67.93
2018-03-11T18:26:31.998Z,70.30
2018-03-11T18:29:01.995Z,70.68
2018-03-11T18:31:31.031Z,70.48
2018-03-11T18:34:00.191Z,71.06
2018-03-11T18:39:05.539Z,68.89
2018-03-11T18:41:34.616Z,70.15
2018-03-11T18:44:03.676Z,69.10
2018-03-11T18:46:33.681Z,71.48
2018-03-11T18:49:02.741Z,70.15
2018-03-11T18:51:31.843Z,69.65
2018-03-11T18:54:00.861Z,70.33
2018-03-11T18:59:05.185Z,69.43
2018-03-11T19:01:35.226Z,69.79
2018-03-11T19:04:04.407Z,73.16
2018-03-11T19:06:33.584Z,75.58
2018-03-11T19:09:02.645Z,78.77
2018-03-11T19:11:31.769Z,79.43
2018-03-11T19:14:00.790Z,81.00
2018-03-11T19:16:30.291Z,83.11
2018-03-11T19:18:59.332Z,79.53
2018-03-11T19:24:04.138Z,79.56
2018-03-11T19:26:33.277Z,79.10
2018-03-11T19:29:02.382Z,76.81
2018-03-11T19:31:31.447Z,78.00
2018-03-11T19:34:00.623Z,79.44
2018-03-11T19:36:29.670Z,81.25
2018-03-11T19:38:58.956Z,79.87
2018-03-11T19:41:28.082Z,81.47
2018-03-11T19:43:57.695Z,81.89
2018-03-11T19:46:26.859Z,83.29
2018-03-11T19:48:55.911Z,83.89
2018-03-11T19:51:25.202Z,82.69
2018-03-11T19:53:55.541Z,83.61
2018-03-11T19:56:25.216Z,84.69
2018-03-11T19:58:54.894Z,83.31
2018-03-11T20:01:24.789Z,82.47
2018-03-11T20:03:54.254Z,81.15
2018-03-11T20:06:26.003Z,83.22
2018-03-11T20:08:55.968Z,82.16
2018-03-11T20:11:26.148Z,83.11
2018-03-11T20:13:55.195Z,82.88
2018-03-11T20:16:25.238Z,84.31
2018-03-11T20:18:54.281Z,83.71
2018-03-11T20:21:23.328Z,83.42
2018-03-11T20:23:52.465Z,84.40
2018-03-11T20:26:21.499Z,83.67
2018-03-11T20:28:50.549Z,83.83
2018-03-11T20:31:19.694Z,84.78
2018-03-11T20:33:48.768Z,84.18
2018-03-11T20:36:17.811Z,83.05
2018-03-11T20:38:46.862Z,83.78
2018-03-11T20:44:09.135Z,85.40
2018-03-11T20:46:38.188Z,86.11
2018-03-11T20:49:11.100Z,87.10
2018-03-11T20:51:40.297Z,86.21
2018-03-11T20:54:13.625Z,87.35
2018-03-11T20:59:18.155Z,86.05
2018-03-11T21:01:47.498Z,85.25
2018-03-11T21:04:16.669Z,86.16
2018-03-11T21:09:22.588Z,84.09
2018-03-11T21:11:51.632Z,84.29
2018-03-11T21:16:56.804Z,84.77
2018-03-11T21:22:02.543Z,84.40
2018-03-11T21:24:32.711Z,82.52
2018-03-11T21:27:02.758Z,83.71
2018-03-11T21:29:35.602Z,84.62
2018-03-11T21:32:04.812Z,84.38
2018-03-11T21:34:33.906Z,83.17
2018-03-11T21:37:02.979Z,84.41
2018-03-11T21:39:35.841Z,85.23
2018-03-11T21:42:04.908Z,84.14
2018-03-11T21:44:33.959Z,84.65
2018-03-11T21:47:11.892Z,84.84
2018-03-11T21:49:45.927Z,84.98
2018-03-11T21:54:50.140Z,82.08
2018-03-11T21:57:33.201Z,81.99
2018-03-11T22:00:13.814Z,83.79
2018-03-11T22:02:54.111Z,85.16
2018-03-11T22:05:23.688Z,85.03
2018-03-11T22:07:52.740Z,84.72
2018-03-11T22:10:21.825Z,86.22
2018-03-11T22:12:50.905Z,85.03
2018-03-11T22:15:19.999Z,86.44
2018-03-11T22:17:49.265Z,85.57
2018-03-11T22:20:18.339Z,85.64
2018-03-11T22:22:47.357Z,86.33
2018-03-11T22:25:17.324Z,85.45
2018-03-11T22:27:46.410Z,86.21
2018-03-11T22:33:01.797Z,85.77
2018-03-11T22:35:30.895Z,87.04
2018-03-11T22:38:15.336Z,86.75
2018-03-11T22:40:49.418Z,88.40
2018-03-11T22:43:18.520Z,88.18
2018-03-11T22:45:48.637Z,88.96
2018-03-11T22:48:17.723Z,89.45
2018-03-11T22:50:53.749Z,89.03
2018-03-11T22:53:22.859Z,89.53
2018-03-11T22:55:51.922Z,88.68
2018-03-11T22:58:21.030Z,88.42
2018-03-11T23:00:57.457Z,87.18
2018-03-11T23:03:26.514Z,87.45
2018-03-11T23:06:06.088Z,86.70
2018-03-11T23:08:35.144Z,88.42
2018-03-11T23:11:16.714Z,88.43
2018-03-11T23:16:20.940Z,88.56
2018-03-11T23:19:07.558Z,88.99
2018-03-11T23:21:36.618Z,89.99
2018-03-11T23:24:05.665Z,89.69
2018-03-11T23:26:34.695Z,90.71
2018-03-11T23:29:03.740Z,89.81
2018-03-11T23:31:32.803Z,90.32
2018-03-11T23:34:01.868Z,90.50
2018-03-11T23:36:30.931Z,91.19
2018-03-11T23:38:59.995Z,89.74
2018-03-11T23:41:29.042Z,90.47
2018-03-11T23:43:58.098Z,90.48
2018-03-11T23:46:27.143Z,90.02
2018-03-11T23:48:56.190Z,90.73
2018-03-11T23:51:25.322Z,92.82
2018-03-11T23:53:54.363Z,90.46
2018-03-11T23:56:23.436Z,93.72
2018-03-11T23:58:52.610Z,94.50
